createdAt,value
2022-09-13T00:02:07.046Z,3.05
2022-09-13T00:06:14.872Z,3.10
2022-09-13T00:10:16.791Z,2.97
2022-09-13T00:14:18.392Z,3.42
2022-09-13T00:18:20.064Z,3.42
2022-09-13T00:22:21.672Z,3.62
2022-09-13T00:26:33.955Z,3.37
2022-09-13T00:30:35.551Z,2.80
2022-09-13T00:34:37.251Z,2.80
2022-09-13T00:38:39.869Z,3.20
2022-09-13T00:42:41.591Z,3.00
2022-09-13T00:46:48.348Z,2.90
2022-09-13T00:50:54.790Z,2.85
2022-09-13T00:55:04.266Z,3.50
2022-09-13T00:59:12.892Z,2.80
2022-09-13T01:03:17.674Z,3.00
2022-09-13T01:07:19.596Z,3.20
2022-09-13T01:11:29.689Z,3.12
2022-09-13T01:15:31.299Z,2.87
2022-09-13T01:19:32.963Z,3.30
2022-09-13T01:24:09.354Z,3.08
2022-09-13T01:28:37.519Z,2.85
2022-09-13T01:32:57.910Z,2.97
2022-09-13T01:37:08.451Z,3.12
2022-09-13T01:41:47.799Z,3.37
2022-09-13T01:45:55.549Z,2.53
2022-09-13T01:50:19.340Z,2.85
2022-09-13T01:54:59.207Z,2.85
2022-09-13T01:59:20.855Z,3.08
2022-09-13T02:03:34.425Z,3.22
2022-09-13T02:07:41.336Z,2.83
2022-09-13T02:11:47.103Z,3.20
2022-09-13T02:15:55.484Z,3.15
2022-09-13T02:20:02.866Z,3.30
2022-09-13T02:24:08.165Z,3.10
2022-09-13T02:28:15.034Z,3.10
2022-09-13T02:32:25.493Z,3.20
2022-09-13T02:36:35.045Z,3.10
2022-09-13T02:40:46.051Z,2.70
2022-09-13T02:45:01.158Z,3.53
2022-09-13T02:49:10.395Z,3.15
2022-09-13T02:53:25.435Z,3.30
2022-09-13T02:57:46.446Z,2.78
2022-09-13T03:02:03.502Z,3.17
2022-09-13T03:06:05.750Z,2.83
2022-09-13T03:10:11.155Z,2.53
2022-09-13T03:14:27.747Z,3.10
2022-09-13T03:18:35.211Z,3.12
2022-09-13T03:22:55.685Z,3.12
2022-09-13T03:26:57.285Z,3.40
2022-09-13T03:31:20.879Z,3.80
2022-09-13T03:35:41.403Z,3.75
2022-09-13T03:40:11.157Z,4.43
2022-09-13T03:44:15.924Z,4.05
2022-09-13T03:48:18.972Z,4.43
2022-09-13T03:52:20.759Z,3.90
2022-09-13T03:56:22.910Z,4.30
2022-09-13T04:00:24.707Z,4.22
2022-09-13T04:04:26.859Z,4.30
2022-09-13T04:08:28.523Z,4.15
2022-09-13T04:12:31.051Z,4.12
2022-09-13T04:16:32.677Z,4.12
2022-09-13T04:20:35.771Z,4.18
2022-09-13T04:24:38.705Z,4.55
2022-09-13T04:28:40.426Z,4.20
2022-09-13T04:32:45.232Z,4.20
2022-09-13T04:36:47.330Z,4.53
2022-09-13T04:40:54.146Z,5.00
2022-09-13T04:44:55.800Z,4.72
2022-09-13T04:48:57.412Z,4.28
2022-09-13T04:52:59.392Z,4.22
2022-09-13T04:57:01.024Z,4.15
2022-09-13T05:01:08.354Z,4.32
2022-09-13T05:09:15.838Z,4.78
2022-09-13T05:13:17.554Z,4.43
2022-09-13T05:17:20.467Z,4.40
2022-09-13T05:21:22.363Z,4.62
2022-09-13T05:25:26.073Z,4.78
2022-09-13T05:29:27.911Z,4.80
2022-09-13T05:33:32.326Z,21.73
2022-09-13T05:37:33.983Z,9.63
2022-09-13T05:41:35.589Z,5.40
2022-09-13T05:45:37.451Z,4.12
2022-09-13T05:50:01.918Z,4.57
2022-09-13T05:54:00.853Z,5.12
2022-09-13T05:58:03.266Z,4.68
2022-09-13T06:02:04.987Z,4.65
2022-09-13T06:06:07.673Z,4.07
2022-09-13T06:10:11.092Z,4.15
2022-09-13T06:14:12.804Z,4.00
2022-09-13T06:18:14.705Z,3.85
2022-09-13T06:22:16.344Z,4.05
2022-09-13T06:26:20.121Z,4.00
2022-09-13T06:30:21.890Z,4.30
2022-09-13T06:34:26.911Z,3.97
2022-09-13T06:42:35.211Z,4.05
2022-09-13T06:46:37.081Z,4.18
2022-09-13T06:50:38.786Z,3.72
2022-09-13T06:54:40.859Z,4.12
2022-09-13T06:58:44.208Z,4.28
2022-09-13T07:02:51.155Z,4.32
2022-09-13T07:06:52.789Z,3.75
2022-09-13T07:10:57.991Z,3.78
2022-09-13T07:14:59.617Z,3.58
2022-09-13T07:19:05.559Z,3.65
2022-09-13T07:23:07.171Z,3.42
2022-09-13T07:27:08.817Z,3.40
2022-09-13T07:31:21.133Z,3.67
2022-09-13T07:35:22.793Z,3.30
2022-09-13T07:39:24.442Z,3.50
2022-09-13T07:43:26.928Z,3.40
2022-09-13T07:47:28.505Z,3.10
2022-09-13T07:51:32.547Z,3.70
2022-09-13T07:55:34.159Z,3.40
2022-09-13T07:59:35.768Z,3.60
2022-09-13T08:03:37.673Z,2.95
2022-09-13T08:07:39.392Z,3.22
2022-09-13T08:11:42.608Z,3.35
2022-09-13T08:15:44.739Z,2.70
2022-09-13T08:19:46.502Z,3.30
2022-09-13T08:23:48.784Z,3.28
2022-09-13T08:27:50.435Z,3.70
2022-09-13T08:31:52.147Z,3.42
2022-09-13T08:35:55.413Z,3.53
2022-09-13T08:39:57.159Z,3.40
2022-09-13T08:44:08.852Z,3.78
2022-09-13T08:48:16.110Z,3.60
2022-09-13T08:52:50.635Z,3.35
2022-09-13T08:56:58.267Z,3.78
2022-09-13T09:01:12.372Z,3.50
2022-09-13T09:05:20.334Z,4.12
2022-09-13T09:09:22.249Z,4.47
2022-09-13T09:13:32.286Z,5.22
2022-09-13T09:18:02.692Z,4.35
2022-09-13T09:22:07.124Z,4.30
2022-09-13T09:26:23.892Z,5.03
2022-09-13T09:30:41.099Z,5.93
2022-09-13T09:38:54.564Z,5.68
2022-09-13T09:42:56.298Z,5.87
2022-09-13T09:47:07.096Z,5.37
2022-09-13T09:51:11.375Z,5.70
2022-09-13T09:55:34.339Z,6.00
2022-09-13T09:59:37.030Z,6.40
2022-09-13T10:03:40.143Z,5.53
2022-09-13T10:07:41.955Z,5.03
2022-09-13T10:11:54.315Z,5.20
2022-09-13T10:16:02.752Z,5.68
2022-09-13T10:20:13.417Z,5.62
2022-09-13T10:24:17.366Z,5.20
2022-09-13T10:28:19.764Z,4.93
2022-09-13T10:32:22.239Z,5.15
2022-09-13T10:36:51.197Z,5.05
2022-09-13T10:45:02.068Z,4.12
2022-09-13T10:49:03.791Z,4.30
2022-09-13T10:53:36.443Z,4.97
2022-09-13T10:57:38.149Z,2.97
2022-09-13T11:01:52.488Z,2.50
2022-09-13T11:06:15.391Z,2.50
2022-09-13T11:10:39.732Z,2.25
2022-09-13T11:15:13.503Z,1.52
2022-09-13T11:19:21.424Z,2.37
2022-09-13T11:23:44.842Z,2.90
2022-09-13T11:27:55.726Z,2.67
2022-09-13T11:32:14.237Z,3.03
2022-09-13T11:36:21.697Z,3.20
2022-09-13T11:40:54.973Z,2.70
2022-09-13T11:45:21.664Z,2.55
2022-09-13T11:49:48.800Z,2.47
2022-09-13T11:54:02.950Z,2.77
2022-09-13T11:58:10.585Z,2.80
2022-09-13T12:02:34.344Z,3.70
2022-09-13T12:06:47.484Z,2.90
2022-09-13T12:10:59.270Z,3.10
2022-09-13T12:15:05.589Z,3.50
2022-09-13T12:19:34.916Z,3.60
2022-09-13T12:23:43.297Z,3.10
2022-09-13T12:28:06.799Z,2.92
2022-09-13T12:32:10.504Z,2.92
2022-09-13T12:36:32.303Z,3.37
2022-09-13T12:40:52.140Z,3.20
2022-09-13T12:45:28.415Z,3.05
2022-09-13T12:49:39.020Z,2.87
2022-09-13T12:54:03.572Z,3.40
2022-09-13T12:58:05.214Z,3.50
2022-09-13T13:02:24.263Z,3.10
2022-09-13T13:06:37.697Z,2.70
2022-09-13T13:10:39.569Z,2.42
2022-09-13T13:14:41.133Z,2.67
2022-09-13T13:18:48.397Z,2.97
2022-09-13T13:22:51.800Z,2.97
2022-09-13T13:26:54.400Z,2.90
2022-09-13T13:30:57.359Z,2.83
2022-09-13T13:35:28.190Z,2.50
2022-09-13T13:39:29.817Z,2.83
2022-09-13T13:43:33.621Z,3.70
2022-09-13T13:47:35.273Z,2.67
2022-09-13T13:51:36.912Z,2.60
2022-09-13T13:56:25.011Z,2.60
2022-09-13T14:00:33.577Z,1.83
2022-09-13T14:04:48.388Z,2.10
2022-09-13T14:09:06.106Z,2.00
2022-09-13T14:13:22.656Z,1.50
2022-09-13T14:17:45.060Z,2.08
2022-09-13T14:22:04.372Z,2.28
2022-09-13T14:26:06.888Z,3.00
2022-09-13T14:30:28.305Z,2.72
2022-09-13T14:34:32.704Z,2.10
2022-09-13T14:38:36.243Z,3.00
2022-09-13T14:42:44.778Z,3.22
2022-09-13T14:46:51.955Z,2.25
2022-09-13T14:50:59.581Z,2.50
2022-09-13T14:55:05.858Z,2.22
2022-09-13T14:59:16.776Z,2.90
2022-09-13T15:03:19.281Z,2.85
2022-09-13T15:07:28.591Z,2.62
2022-09-13T15:11:33.994Z,2.70
2022-09-13T15:15:40.678Z,3.00
2022-09-13T15:19:48.870Z,2.42
2022-09-13T15:23:51.148Z,2.60
2022-09-13T15:27:54.692Z,3.05
2022-09-13T15:31:59.552Z,3.30
2022-09-13T15:36:28.668Z,2.95
2022-09-13T15:40:40.614Z,3.00
2022-09-13T15:44:42.768Z,3.05
2022-09-13T15:48:51.781Z,3.25
2022-09-13T15:52:55.162Z,3.37
2022-09-13T15:56:58.090Z,2.72
2022-09-13T16:01:00.378Z,10.82
2022-09-13T16:05:02.052Z,3.87
2022-09-13T16:09:24.439Z,2.90
2022-09-13T16:13:26.062Z,3.58
2022-09-13T16:17:28.208Z,2.80
2022-09-13T16:21:29.917Z,4.62
2022-09-13T16:25:31.615Z,3.90
2022-09-13T16:29:33.617Z,3.47
2022-09-13T16:33:35.315Z,15.02
2022-09-13T16:37:37.479Z,4.57
2022-09-13T16:41:40.251Z,6.65
2022-09-13T16:45:42.830Z,6.10
2022-09-13T16:49:44.711Z,6.05
2022-09-13T16:53:46.306Z,5.82
2022-09-13T16:57:50.125Z,4.55
2022-09-13T17:01:52.629Z,4.32
2022-09-13T17:05:59.369Z,7.65
2022-09-13T17:10:01.008Z,8.15
2022-09-13T17:14:05.372Z,7.90
2022-09-13T17:18:07.474Z,4.35
2022-09-13T17:22:11.121Z,5.28
2022-09-13T17:26:12.891Z,5.10
2022-09-13T17:30:14.536Z,3.20
2022-09-13T17:34:16.256Z,3.40
2022-09-13T17:38:17.872Z,2.97
2022-09-13T17:42:23.159Z,3.05
2022-09-13T17:46:28.864Z,3.35
2022-09-13T17:50:30.589Z,3.60
2022-09-13T17:54:32.345Z,3.60
2022-09-13T17:58:34.999Z,3.85
2022-09-13T18:02:36.688Z,9.27
2022-09-13T18:06:42.787Z,4.10
2022-09-13T18:11:04.103Z,3.55
2022-09-13T18:15:06.752Z,3.92
2022-09-13T18:19:09.077Z,3.80
2022-09-13T18:23:11.445Z,3.78
2022-09-13T18:27:13.086Z,4.00
2022-09-13T18:31:17.264Z,3.37
2022-09-13T18:35:18.942Z,4.12
2022-09-13T18:39:22.481Z,4.18
2022-09-13T18:43:24.194Z,4.05
2022-09-13T18:47:25.846Z,4.00
2022-09-13T18:51:45.771Z,3.58
2022-09-13T18:55:47.440Z,4.50
2022-09-13T18:59:49.084Z,4.22
2022-09-13T19:03:53.417Z,4.28
2022-09-13T19:07:56.122Z,4.75
2022-09-13T19:11:58.003Z,7.53
2022-09-13T19:16:00.699Z,9.45
2022-09-13T19:20:03.527Z,4.40
2022-09-13T19:24:10.806Z,5.37
2022-09-13T19:28:14.219Z,4.95
2022-09-13T19:32:16.030Z,6.95
2022-09-13T19:36:23.471Z,5.00
2022-09-13T19:40:25.214Z,5.65
2022-09-13T19:44:27.311Z,6.15
2022-09-13T19:48:39.502Z,5.80
2022-09-13T19:52:41.235Z,5.87
2022-09-13T19:56:43.818Z,5.87
2022-09-13T20:00:45.431Z,6.53
2022-09-13T20:04:48.201Z,6.37
2022-09-13T20:08:50.156Z,8.35
2022-09-13T20:12:54.267Z,7.45
2022-09-13T20:16:56.153Z,7.12
2022-09-13T20:21:06.304Z,8.10
2022-09-13T20:25:08.576Z,8.43
2022-09-13T20:29:10.559Z,10.20
2022-09-13T20:33:12.669Z,9.15
2022-09-13T20:37:14.348Z,9.10
2022-09-13T20:41:16.993Z,9.32
2022-09-13T20:45:18.624Z,10.50
2022-09-13T20:49:20.251Z,10.98
2022-09-13T20:53:21.864Z,10.60
2022-09-13T20:57:24.224Z,12.40
2022-09-13T21:01:28.130Z,9.77
2022-09-13T21:05:29.782Z,9.30
2022-09-13T21:09:32.385Z,7.45
2022-09-13T21:13:36.377Z,7.03
2022-09-13T21:17:38.052Z,7.45
2022-09-13T21:21:41.612Z,7.30
2022-09-13T21:25:43.254Z,6.80
2022-09-13T21:29:44.841Z,5.90
2022-09-13T21:33:47.238Z,5.43
2022-09-13T21:37:48.897Z,4.85
2022-09-13T21:41:50.772Z,4.78
2022-09-13T21:46:16.709Z,4.57
2022-09-13T21:50:18.768Z,3.20
2022-09-13T21:54:20.788Z,2.35
2022-09-13T21:58:22.390Z,2.10
2022-09-13T22:02:24.058Z,2.12
2022-09-13T22:06:31.395Z,2.08
2022-09-13T22:10:35.942Z,2.47
2022-09-13T22:14:37.559Z,2.15
2022-09-13T22:18:40.082Z,2.37
2022-09-13T22:22:41.715Z,2.12
2022-09-13T22:26:43.871Z,2.42
2022-09-13T22:30:45.617Z,2.03
2022-09-13T22:34:47.303Z,2.60
2022-09-13T22:38:54.657Z,2.28
2022-09-13T22:42:56.625Z,2.67
2022-09-13T22:47:00.245Z,2.55
2022-09-13T22:51:02.084Z,2.45
2022-09-13T22:55:03.900Z,2.25
2022-09-13T22:59:17.847Z,2.33
2022-09-13T23:03:19.561Z,2.30
2022-09-13T23:07:21.244Z,2.35
2022-09-13T23:11:37.684Z,2.28
2022-09-13T23:15:39.415Z,2.58
2022-09-13T23:19:41.076Z,2.40
2022-09-13T23:23:43.115Z,2.33
2022-09-13T23:27:45.069Z,2.12
2022-09-13T23:31:47.616Z,2.47
2022-09-13T23:35:50.608Z,2.22
2022-09-13T23:39:52.408Z,2.30
2022-09-13T23:43:54.200Z,1.95
2022-09-13T23:47:55.875Z,2.00
2022-09-13T23:51:57.648Z,2.08
2022-09-13T23:55:59.504Z,2.08
